Time;durP1;ratioP1;P1;durP2;ratioP2;P2;SDS_P1;SDS_P2;PMS_P1;PMS_P2;Temp;Humidity;BMP_temperature;BMP_pressure;BME280_temperature;BME280_humidity;BME280_pressure;Samples;Min_cycle;Max_cycle;Signal;HPM_P1;HPM_P2
2022/07/06 00:00:45;;;;;;;2.78;2.50;;;;;;;;;;2075446;28;20255;-53
2022/07/06 00:01:45;;;;;;;3.15;2.80;;;;;;;;;;2080753;28;20172;-55
2022/07/06 00:02:46;;;;;;;3.03;2.60;;;;;;;;;;2074020;28;20220;-55
2022/07/06 00:03:46;;;;;;;3.25;2.67;;;;;;;;;;2073738;28;20591;-53
2022/07/06 00:04:46;;;;;;;4.35;2.97;;;;;;;;;;2073770;28;20219;-57
2022/07/06 00:05:47;;;;;;;4.93;2.90;;;;;;;;;;2074304;28;20177;-56
2022/07/06 00:06:48;;;;;;;3.17;2.90;;;;;;;;;;2080418;28;20579;-55
2022/07/06 00:07:48;;;;;;;3.90;2.55;;;;;;;;;;2080517;28;20652;-54
2022/07/06 00:08:48;;;;;;;6.07;2.72;;;;;;;;;;2074555;28;20167;-53
2022/07/06 00:09:48;;;;;;;3.85;2.83;;;;;;;;;;2078701;28;20582;-53
2022/07/06 00:10:49;;;;;;;2.63;2.50;;;;;;;;;;2082281;28;20583;-55
2022/07/06 00:11:49;;;;;;;4.22;3.30;;;;;;;;;;2082737;28;20218;-56
2022/07/06 00:12:50;;;;;;;3.70;2.72;;;;;;;;;;2082786;28;20230;-56
2022/07/06 00:13:50;;;;;;;4.47;2.47;;;;;;;;;;2082038;28;20176;-52
2022/07/06 00:14:50;;;;;;;3.17;2.78;;;;;;;;;;2081411;28;20185;-57
2022/07/06 00:15:51;;;;;;;2.90;2.60;;;;;;;;;;2082415;28;20247;-55
2022/07/06 00:16:51;;;;;;;6.85;2.75;;;;;;;;;;2082565;28;20609;-54
2022/07/06 00:17:51;;;;;;;3.25;2.65;;;;;;;;;;2082563;28;20176;-57
2022/07/06 00:18:52;;;;;;;3.60;2.85;;;;;;;;;;2082029;28;20173;-56
2022/07/06 00:19:52;;;;;;;3.58;2.67;;;;;;;;;;2081889;28;20189;-56
2022/07/06 00:20:52;;;;;;;3.22;2.63;;;;;;;;;;2082171;28;20271;-54
2022/07/06 00:21:53;;;;;;;5.47;2.60;;;;;;;;;;2082676;28;20176;-56
2022/07/06 00:22:53;;;;;;;2.70;2.50;;;;;;;;;;2082446;28;20184;-56
2022/07/06 00:23:53;;;;;;;4.07;2.53;;;;;;;;;;2082247;28;20252;-54
2022/07/06 00:24:54;;;;;;;3.28;2.65;;;;;;;;;;2080353;28;20180;-56
2022/07/06 00:25:54;;;;;;;3.47;2.65;;;;;;;;;;2081846;28;20172;-57
2022/07/06 00:26:54;;;;;;;3.38;3.10;;;;;;;;;;2079058;28;20242;-55
2022/07/06 00:27:55;;;;;;;4.15;3.03;;;;;;;;;;2074516;28;20176;-55
2022/07/06 00:28:55;;;;;;;3.50;3.03;;;;;;;;;;2074511;28;20161;-54
2022/07/06 00:29:55;;;;;;;2.85;2.65;;;;;;;;;;2073694;28;20177;-56
2022/07/06 00:30:56;;;;;;;4.30;3.08;;;;;;;;;;2070085;28;20203;-56
2022/07/06 00:31:57;;;;;;;2.78;2.47;;;;;;;;;;2073907;28;20199;-57
2022/07/06 00:32:58;;;;;;;2.97;2.78;;;;;;;;;;2073431;28;20168;-53
2022/07/06 00:33:58;;;;;;;4.75;2.58;;;;;;;;;;2073201;28;20164;-57
2022/07/06 00:34:58;;;;;;;3.20;2.70;;;;;;;;;;2081504;28;20714;-53
2022/07/06 00:35:59;;;;;;;2.97;2.58;;;;;;;;;;2089928;28;20198;-56
2022/07/06 00:36:59;;;;;;;2.45;2.35;;;;;;;;;;2081575;28;20204;-54
2022/07/06 00:37:59;;;;;;;2.85;2.40;;;;;;;;;;2073653;28;20183;-57
2022/07/06 00:39:00;;;;;;;4.15;2.85;;;;;;;;;;2081870;28;20169;-54
2022/07/06 00:40:00;;;;;;;5.60;2.65;;;;;;;;;;2081768;28;20203;-54
2022/07/06 00:41:01;;;;;;;3.10;2.72;;;;;;;;;;2081058;28;20204;-52
2022/07/06 00:42:01;;;;;;;3.45;2.80;;;;;;;;;;2082525;28;20176;-56
2022/07/06 00:43:01;;;;;;;4.82;2.90;;;;;;;;;;2081751;28;20172;-54
2022/07/06 00:44:06;;;;;;;3.38;2.58;;;;;;;;;;2080963;28;20180;-54
2022/07/06 00:45:07;;;;;;;4.63;2.40;;;;;;;;;;2072956;28;20520;-53
2022/07/06 00:46:09;;;;;;;2.78;2.35;;;;;;;;;;2073741;28;20247;-60
2022/07/06 00:47:09;;;;;;;2.92;2.47;;;;;;;;;;2076521;28;20196;-55
2022/07/06 00:48:09;;;;;;;2.85;2.65;;;;;;;;;;2075598;28;20690;-56
2022/07/06 00:50:13;;;;;;;2.88;2.67;;;;;;;;;;2080872;28;20563;-54
2022/07/06 00:50:30;;;;;;;4.05;2.40;;;;;;;;;;2086960;28;20178;-57
2022/07/06 00:51:32;;;;;;;3.55;2.85;;;;;;;;;;2082886;28;20678;-57
2022/07/06 00:52:32;;;;;;;2.90;2.60;;;;;;;;;;2081561;28;20187;-54
2022/07/06 00:53:33;;;;;;;2.50;2.40;;;;;;;;;;2079928;28;20199;-54
2022/07/06 00:54:34;;;;;;;4.60;2.80;;;;;;;;;;2083656;28;20262;-54
2022/07/06 00:55:35;;;;;;;3.13;2.67;;;;;;;;;;2084239;28;20243;-55
2022/07/06 00:56:36;;;;;;;3.03;2.78;;;;;;;;;;2089765;28;20207;-53
2022/07/06 00:57:37;;;;;;;2.83;2.65;;;;;;;;;;2090773;28;20232;-55
2022/07/06 00:58:37;;;;;;;3.30;2.78;;;;;;;;;;2081142;28;20433;-56
2022/07/06 00:59:38;;;;;;;2.55;2.40;;;;;;;;;;2078058;28;20197;-56
2022/07/06 01:00:44;;;;;;;4.47;2.75;;;;;;;;;;2074299;28;20202;-54
2022/07/06 01:01:45;;;;;;;4.30;2.47;;;;;;;;;;2079662;28;20176;-58
2022/07/06 01:02:45;;;;;;;3.15;2.70;;;;;;;;;;2077296;28;20322;-52
2022/07/06 01:03:46;;;;;;;2.78;2.45;;;;;;;;;;2083464;28;20257;-54
2022/07/06 01:04:47;;;;;;;4.20;2.88;;;;;;;;;;2082271;28;20164;-56
2022/07/06 01:05:47;;;;;;;3.03;2.72;;;;;;;;;;2065496;28;20173;-53
2022/07/06 01:06:47;;;;;;;2.60;2.50;;;;;;;;;;2071955;28;20205;-53
2022/07/06 01:07:48;;;;;;;4.65;2.55;;;;;;;;;;2082904;28;20724;-55
2022/07/06 01:08:49;;;;;;;3.42;2.80;;;;;;;;;;2081553;28;20783;-59
2022/07/06 01:09:49;;;;;;;3.03;2.70;;;;;;;;;;2079805;28;20184;-58
2022/07/06 01:10:50;;;;;;;3.25;2.95;;;;;;;;;;2079759;28;20183;-54
2022/07/06 01:11:52;;;;;;;3.15;2.60;;;;;;;;;;2082325;28;20191;-56
2022/07/06 01:12:52;;;;;;;3.38;2.60;;;;;;;;;;2072608;28;20180;-57
2022/07/06 01:13:53;;;;;;;3.40;3.10;;;;;;;;;;2066282;28;20248;-55
2022/07/06 01:14:53;;;;;;;3.15;2.90;;;;;;;;;;2071965;28;20744;-53
2022/07/06 01:15:53;;;;;;;3.45;3.03;;;;;;;;;;2081649;28;20563;-53
2022/07/06 01:16:54;;;;;;;3.00;2.55;;;;;;;;;;2080884;28;20782;-56
2022/07/06 01:17:54;;;;;;;3.35;3.05;;;;;;;;;;2084032;28;20199;-55
2022/07/06 01:18:59;;;;;;;4.03;2.90;;;;;;;;;;2072285;28;20228;-56
2022/07/06 01:20:19;;;;;;;3.03;2.83;;;;;;;;;;2066811;28;20269;-56
2022/07/06 01:21:19;;;;;;;4.00;2.92;;;;;;;;;;2083198;28;20187;-56
2022/07/06 01:22:20;;;;;;;3.50;3.20;;;;;;;;;;2082275;28;20168;-55
2022/07/06 01:23:20;;;;;;;3.92;3.10;;;;;;;;;;2074185;28;20185;-58
2022/07/06 01:24:20;;;;;;;3.53;3.20;;;;;;;;;;2073265;28;20180;-53
2022/07/06 01:25:21;;;;;;;3.08;2.80;;;;;;;;;;2072758;28;20169;-53
2022/07/06 01:26:21;;;;;;;5.68;3.13;;;;;;;;;;2078513;28;21519;-55
2022/07/06 01:27:21;;;;;;;3.35;3.15;;;;;;;;;;2074908;28;20220;-55
2022/07/06 01:28:22;;;;;;;4.28;3.40;;;;;;;;;;2071044;28;20185;-57
2022/07/06 01:29:22;;;;;;;3.55;3.08;;;;;;;;;;2083147;28;20178;-55
2022/07/06 01:30:22;;;;;;;3.58;3.10;;;;;;;;;;2081950;28;20203;-58
2022/07/06 01:31:24;;;;;;;3.40;3.10;;;;;;;;;;2082361;28;20199;-56
2022/07/06 01:32:25;;;;;;;4.38;3.42;;;;;;;;;;2083056;28;20199;-52
2022/07/06 01:33:25;;;;;;;3.10;2.90;;;;;;;;;;2074065;28;20188;-53
2022/07/06 01:34:25;;;;;;;3.30;3.00;;;;;;;;;;2083871;28;20231;-53
2022/07/06 01:35:26;;;;;;;4.90;3.05;;;;;;;;;;2083884;28;20189;-56
2022/07/06 01:36:26;;;;;;;3.47;3.17;;;;;;;;;;2082923;28;20259;-52
2022/07/06 01:37:27;;;;;;;5.68;3.25;;;;;;;;;;2073134;28;20181;-53
2022/07/06 01:38:27;;;;;;;4.82;3.30;;;;;;;;;;2073985;28;20185;-54
2022/07/06 01:39:27;;;;;;;4.47;3.17;;;;;;;;;;2070107;28;20638;-53
2022/07/06 01:40:28;;;;;;;3.95;3.30;;;;;;;;;;2083307;28;20172;-53
2022/07/06 01:41:28;;;;;;;3.60;3.30;;;;;;;;;;2091298;28;20168;-53
2022/07/06 01:42:28;;;;;;;3.88;3.42;;;;;;;;;;2078672;28;20173;-54
2022/07/06 01:43:29;;;;;;;3.13;2.92;;;;;;;;;;2067824;28;20193;-53
2022/07/06 01:44:29;;;;;;;3.97;3.10;;;;;;;;;;2066403;28;20215;-54
2022/07/06 01:45:32;;;;;;;5.45;3.28;;;;;;;;;;2083871;28;20180;-53
2022/07/06 01:46:32;;;;;;;4.22;2.90;;;;;;;;;;2083713;28;20175;-54
2022/07/06 01:47:33;;;;;;;4.05;3.58;;;;;;;;;;2083742;28;20172;-57
2022/07/06 01:48:33;;;;;;;5.10;3.13;;;;;;;;;;2085269;28;20188;-56
2022/07/06 01:49:34;;;;;;;3.50;3.20;;;;;;;;;;2083632;28;20226;-55
2022/07/06 01:50:34;;;;;;;3.65;2.92;;;;;;;;;;2075207;28;20180;-52
2022/07/06 01:51:35;;;;;;;4.00;3.60;;;;;;;;;;2076309;28;20168;-57
2022/07/06 01:52:36;;;;;;;6.25;3.40;;;;;;;;;;2081588;28;20183;-57
2022/07/06 01:53:36;;;;;;;4.38;3.30;;;;;;;;;;2067531;28;20645;-55
2022/07/06 01:54:38;;;;;;;4.25;3.42;;;;;;;;;;2064314;28;20199;-54
2022/07/06 01:55:39;;;;;;;3.17;2.97;;;;;;;;;;2073415;28;20239;-56
2022/07/06 01:56:39;;;;;;;4.32;3.25;;;;;;;;;;2068685;28;20205;-54
2022/07/06 01:57:40;;;;;;;3.85;3.45;;;;;;;;;;2065485;28;20174;-54
2022/07/06 01:58:43;;;;;;;3.63;3.28;;;;;;;;;;2069342;28;20254;-56
2022/07/06 01:59:43;;;;;;;3.10;2.90;;;;;;;;;;2073839;28;20226;-55
2022/07/06 02:00:44;;;;;;;3.63;2.88;;;;;;;;;;2082589;28;20199;-56
2022/07/06 02:01:44;;;;;;;4.10;3.08;;;;;;;;;;2090693;28;20781;-56
2022/07/06 02:02:44;;;;;;;3.35;3.15;;;;;;;;;;2081472;28;20202;-56
2022/07/06 02:03:46;;;;;;;3.90;3.42;;;;;;;;;;2073598;28;20289;-56
2022/07/06 02:04:46;;;;;;;3.63;3.22;;;;;;;;;;2072509;28;20181;-52
2022/07/06 02:05:47;;;;;;;4.03;3.63;;;;;;;;;;2073487;28;20551;-57
2022/07/06 02:06:47;;;;;;;3.00;2.80;;;;;;;;;;2073480;28;20193;-56
2022/07/06 02:07:48;;;;;;;6.15;3.55;;;;;;;;;;2073440;28;20177;-55
2022/07/06 02:08:48;;;;;;;3.97;2.92;;;;;;;;;;2073810;28;20188;-58
2022/07/06 02:09:48;;;;;;;5.70;3.30;;;;;;;;;;2081432;28;20176;-58
2022/07/06 02:10:49;;;;;;;3.47;3.13;;;;;;;;;;2080936;28;20294;-55
2022/07/06 02:11:50;;;;;;;4.38;3.00;;;;;;;;;;2073085;28;20177;-56
2022/07/06 02:12:50;;;;;;;3.60;3.30;;;;;;;;;;2073356;28;20280;-57
2022/07/06 02:13:51;;;;;;;3.33;3.08;;;;;;;;;;2074464;28;20172;-55
2022/07/06 02:14:51;;;;;;;3.55;3.00;;;;;;;;;;2080844;28;20168;-56
2022/07/06 02:15:52;;;;;;;7.47;3.70;;;;;;;;;;2073739;28;20173;-55
2022/07/06 02:16:52;;;;;;;3.92;3.50;;;;;;;;;;2073173;28;20204;-55
2022/07/06 02:17:52;;;;;;;6.05;3.58;;;;;;;;;;2088507;23;20227;-54
2022/07/06 02:18:53;;;;;;;3.30;3.10;;;;;;;;;;2078987;28;20172;-54
2022/07/06 02:19:53;;;;;;;3.60;3.05;;;;;;;;;;2079376;28;20208;-54
2022/07/06 02:20:55;;;;;;;4.13;3.10;;;;;;;;;;2070069;28;20215;-57
2022/07/06 02:21:55;;;;;;;5.75;3.53;;;;;;;;;;2065456;28;20173;-53
2022/07/06 02:22:55;;;;;;;3.97;3.25;;;;;;;;;;2064492;28;20177;-53
2022/07/06 02:23:56;;;;;;;4.97;3.40;;;;;;;;;;2066469;28;20248;-54
2022/07/06 02:24:56;;;;;;;5.03;3.13;;;;;;;;;;2071594;28;20177;-53
2022/07/06 02:25:57;;;;;;;3.20;2.80;;;;;;;;;;2072605;28;20180;-53
2022/07/06 02:26:58;;;;;;;3.45;2.78;;;;;;;;;;2069602;28;20655;-52
2022/07/06 02:27:59;;;;;;;3.55;3.35;;;;;;;;;;2076216;28;20266;-54
2022/07/06 02:28:59;;;;;;;4.40;3.10;;;;;;;;;;2072786;28;20169;-54
2022/07/06 02:30:00;;;;;;;3.55;3.20;;;;;;;;;;2065785;28;20178;-56
2022/07/06 02:31:00;;;;;;;3.63;3.05;;;;;;;;;;2072840;28;20181;-56
2022/07/06 02:32:02;;;;;;;5.57;3.05;;;;;;;;;;2080902;28;20172;-53
2022/07/06 02:33:02;;;;;;;5.22;3.05;;;;;;;;;;2072849;28;20183;-55
2022/07/06 02:34:03;;;;;;;3.67;3.00;;;;;;;;;;2071943;28;20173;-51
2022/07/06 02:35:03;;;;;;;3.22;2.92;;;;;;;;;;2084918;28;20207;-51
2022/07/06 02:36:04;;;;;;;3.38;3.08;;;;;;;;;;2080477;28;20183;-56
2022/07/06 02:37:04;;;;;;;3.97;3.08;;;;;;;;;;2072625;28;20549;-54
2022/07/06 02:38:05;;;;;;;3.40;3.10;;;;;;;;;;2072464;28;20188;-52
2022/07/06 02:39:05;;;;;;;3.33;3.10;;;;;;;;;;2072747;28;20173;-55
2022/07/06 02:40:06;;;;;;;6.00;3.05;;;;;;;;;;2072294;28;20603;-55
2022/07/06 02:41:07;;;;;;;4.47;3.05;;;;;;;;;;2080779;28;20684;-55
2022/07/06 02:42:08;;;;;;;3.13;2.75;;;;;;;;;;2080838;28;20185;-53
2022/07/06 02:43:08;;;;;;;3.33;2.58;;;;;;;;;;2080503;28;20225;-53
2022/07/06 02:44:09;;;;;;;4.50;3.08;;;;;;;;;;2071680;28;20260;-52
2022/07/06 02:45:14;;;;;;;5.32;3.22;;;;;;;;;;2073112;28;20200;-53
2022/07/06 02:46:15;;;;;;;7.15;3.17;;;;;;;;;;2081308;28;20252;-52
2022/07/06 02:47:16;;;;;;;4.78;3.25;;;;;;;;;;2080710;28;20523;-55
2022/07/06 02:48:19;;;;;;;5.10;3.30;;;;;;;;;;2072506;28;20200;-55
2022/07/06 02:49:19;;;;;;;4.03;3.13;;;;;;;;;;2072957;28;20189;-50
2022/07/06 02:50:20;;;;;;;5.20;3.20;;;;;;;;;;2075924;28;20225;-53
2022/07/06 02:51:20;;;;;;;6.20;3.05;;;;;;;;;;2075353;28;20256;-55
2022/07/06 02:52:22;;;;;;;5.97;3.55;;;;;;;;;;2071983;28;20183;-57
2022/07/06 02:53:22;;;;;;;5.07;3.15;;;;;;;;;;2058029;28;20170;-54
2022/07/06 02:54:26;;;;;;;5.15;2.97;;;;;;;;;;2071291;28;20176;-52
2022/07/06 02:55:26;;;;;;;3.22;2.90;;;;;;;;;;2073809;28;20197;-53
2022/07/06 02:56:28;;;;;;;3.92;2.90;;;;;;;;;;2064493;28;20174;-55
2022/07/06 02:57:28;;;;;;;3.50;3.20;;;;;;;;;;2064378;28;20264;-55
2022/07/06 02:58:28;;;;;;;3.30;3.00;;;;;;;;;;2065639;28;20186;-54
2022/07/06 02:59:29;;;;;;;5.55;3.20;;;;;;;;;;2070631;28;20213;-57
2022/07/06 03:00:30;;;;;;;5.68;3.03;;;;;;;;;;2081105;28;20239;-51
2022/07/06 03:01:31;;;;;;;3.55;3.03;;;;;;;;;;2081140;28;20214;-59
2022/07/06 03:02:31;;;;;;;8.98;3.55;;;;;;;;;;2073578;28;20179;-60
2022/07/06 03:03:32;;;;;;;3.42;2.97;;;;;;;;;;2064731;28;20205;-55
2022/07/06 03:04:33;;;;;;;6.07;3.40;;;;;;;;;;2072322;28;20173;-57
2022/07/06 03:05:33;;;;;;;4.30;3.35;;;;;;;;;;2073526;28;20165;-56
2022/07/06 03:06:34;;;;;;;3.90;3.60;;;;;;;;;;2073078;28;20642;-58
2022/07/06 03:07:34;;;;;;;6.75;3.70;;;;;;;;;;2064234;28;20261;-58
2022/07/06 03:08:35;;;;;;;3.63;3.08;;;;;;;;;;2081061;28;20176;-55
2022/07/06 03:09:36;;;;;;;5.35;3.25;;;;;;;;;;2080567;28;20263;-57
2022/07/06 03:10:37;;;;;;;4.15;3.55;;;;;;;;;;2078368;28;20233;-53
2022/07/06 03:11:37;;;;;;;3.50;3.00;;;;;;;;;;2083110;28;20227;-54
2022/07/06 03:12:38;;;;;;;6.38;3.40;;;;;;;;;;2082411;28;20191;-56
2022/07/06 03:13:39;;;;;;;5.15;3.33;;;;;;;;;;2082595;28;20210;-51
2022/07/06 03:14:39;;;;;;;4.65;3.45;;;;;;;;;;2081636;28;20172;-52
2022/07/06 03:15:40;;;;;;;3.55;3.28;;;;;;;;;;2071995;28;20189;-54
2022/07/06 03:16:40;;;;;;;4.85;3.35;;;;;;;;;;2066165;28;20284;-58
2022/07/06 03:17:41;;;;;;;3.38;3.08;;;;;;;;;;2065961;28;20248;-57
2022/07/06 03:18:42;;;;;;;5.07;3.28;;;;;;;;;;2065989;28;20189;-56
2022/07/06 03:19:42;;;;;;;7.75;3.65;;;;;;;;;;2066020;28;20201;-59
2022/07/06 03:20:42;;;;;;;4.18;3.33;;;;;;;;;;2071235;28;20205;-53
2022/07/06 03:21:45;;;;;;;5.35;3.65;;;;;;;;;;2080942;28;20223;-53
2022/07/06 03:22:45;;;;;;;3.70;3.40;;;;;;;;;;2074084;28;20280;-54
2022/07/06 03:23:48;;;;;;;4.15;3.58;;;;;;;;;;2074173;28;20192;-53
2022/07/06 03:24:49;;;;;;;3.55;3.20;;;;;;;;;;2081658;28;20176;-56
2022/07/06 03:25:49;;;;;;;4.20;3.72;;;;;;;;;;2075755;28;20646;-57
2022/07/06 03:26:50;;;;;;;5.55;3.22;;;;;;;;;;2067977;28;20177;-53
2022/07/06 03:27:50;;;;;;;6.28;3.78;;;;;;;;;;2082041;28;20692;-56
2022/07/06 03:28:52;;;;;;;6.80;3.90;;;;;;;;;;2082493;28;20177;-55
2022/07/06 03:29:53;;;;;;;7.72;3.90;;;;;;;;;;2073874;28;20232;-56
2022/07/06 03:30:54;;;;;;;4.20;3.60;;;;;;;;;;2068184;28;20224;-57
2022/07/06 03:31:55;;;;;;;4.28;3.97;;;;;;;;;;2064962;28;20275;-58
2022/07/06 03:32:56;;;;;;;5.47;3.92;;;;;;;;;;2073788;28;20188;-53
2022/07/06 03:33:58;;;;;;;3.97;3.67;;;;;;;;;;2065822;28;20185;-52
2022/07/06 03:34:59;;;;;;;4.20;3.70;;;;;;;;;;2074125;28;20181;-57
2022/07/06 03:35:59;;;;;;;3.40;3.10;;;;;;;;;;2082855;28;20164;-54
2022/07/06 03:37:00;;;;;;;5.57;3.10;;;;;;;;;;2081944;28;20176;-55
2022/07/06 03:38:02;;;;;;;4.72;3.17;;;;;;;;;;2074288;28;20207;-56
2022/07/06 03:39:04;;;;;;;4.30;3.35;;;;;;;;;;2075445;28;20236;-53
2022/07/06 03:40:05;;;;;;;6.55;3.55;;;;;;;;;;2074971;28;20203;-52
2022/07/06 03:41:06;;;;;;;3.78;3.47;;;;;;;;;;2066032;28;20197;-55
2022/07/06 03:42:06;;;;;;;4.35;3.35;;;;;;;;;;2074113;28;20257;-60
2022/07/06 03:43:08;;;;;;;5.05;4.00;;;;;;;;;;2078385;28;20168;-56
2022/07/06 03:44:10;;;;;;;4.25;3.83;;;;;;;;;;2081057;28;20165;-51
2022/07/06 03:45:11;;;;;;;4.35;4.03;;;;;;;;;;2082337;28;20715;-57
2022/07/06 03:46:14;;;;;;;8.23;3.55;;;;;;;;;;2074091;28;20230;-56
2022/07/06 03:47:14;;;;;;;4.05;3.63;;;;;;;;;;2073973;28;20189;-55
2022/07/06 03:48:14;;;;;;;4.82;4.28;;;;;;;;;;2075486;28;20193;-58
2022/07/06 03:49:15;;;;;;;5.95;3.65;;;;;;;;;;2065721;28;20704;-53
2022/07/06 03:50:16;;;;;;;4.00;3.70;;;;;;;;;;2078338;28;20180;-55
2022/07/06 03:51:17;;;;;;;5.90;4.22;;;;;;;;;;2073822;28;20219;-56
2022/07/06 03:52:17;;;;;;;3.75;3.28;;;;;;;;;;2073640;28;20354;-54
2022/07/06 03:53:24;;;;;;;4.63;3.30;;;;;;;;;;2075250;28;20240;-52
2022/07/06 03:54:24;;;;;;;5.88;3.50;;;;;;;;;;2064787;28;20543;-56
2022/07/06 03:55:30;;;;;;;4.97;3.35;;;;;;;;;;2066378;28;20248;-56
2022/07/06 03:56:38;;;;;;;3.78;3.47;;;;;;;;;;2070479;28;20284;-56
2022/07/06 03:57:43;;;;;;;3.97;3.65;;;;;;;;;;2080619;28;20282;-53
2022/07/06 03:58:47;;;;;;;4.85;3.88;;;;;;;;;;2066110;28;20174;-55
2022/07/06 03:59:47;;;;;;;6.25;3.63;;;;;;;;;;2065665;28;20179;-54
2022/07/06 04:00:48;;;;;;;9.73;3.53;;;;;;;;;;2081697;28;20258;-53
2022/07/06 04:01:52;;;;;;;5.53;3.63;;;;;;;;;;2081689;28;20183;-58
2022/07/06 04:02:53;;;;;;;3.78;3.40;;;;;;;;;;2066692;28;20223;-56
2022/07/06 04:03:57;;;;;;;4.93;3.80;;;;;;;;;;2065491;28;20182;-58
2022/07/06 04:04:58;;;;;;;5.20;3.60;;;;;;;;;;2065172;28;20204;-56
2022/07/06 04:05:58;;;;;;;4.15;3.75;;;;;;;;;;2074097;28;20215;-51
2022/07/06 04:06:58;;;;;;;4.45;3.35;;;;;;;;;;2065810;28;20299;-54
2022/07/06 04:07:59;;;;;;;5.65;3.47;;;;;;;;;;2068837;28;20220;-57
2022/07/06 04:09:07;;;;;;;4.38;3.38;;;;;;;;;;2074668;28;20555;-50
2022/07/06 04:10:07;;;;;;;3.30;3.10;;;;;;;;;;2073292;28;20204;-55
2022/07/06 04:11:08;;;;;;;4.07;3.78;;;;;;;;;;2073580;28;20181;-55
2022/07/06 04:12:08;;;;;;;3.70;3.40;;;;;;;;;;2065596;28;20252;-53
2022/07/06 04:13:09;;;;;;;3.53;3.00;;;;;;;;;;2073835;28;20223;-53
2022/07/06 04:14:10;;;;;;;3.63;3.17;;;;;;;;;;2072870;28;20263;-56
2022/07/06 04:15:11;;;;;;;3.63;3.00;;;;;;;;;;2073160;28;20303;-56
2022/07/06 04:16:12;;;;;;;4.68;3.60;;;;;;;;;;2081723;28;20179;-53
2022/07/06 04:18:31;;;;;;;4.53;3.13;;;;;;;;;;2075833;28;20169;-56
2022/07/06 04:19:32;;;;;;;4.32;3.30;;;;;;;;;;2081833;28;20195;-52
2022/07/06 04:20:32;;;;;;;3.17;2.97;;;;;;;;;;2081822;28;20195;-52
2022/07/06 04:21:33;;;;;;;6.65;3.53;;;;;;;;;;2081403;28;20632;-51
2022/07/06 04:22:36;;;;;;;3.67;3.35;;;;;;;;;;2073713;28;20176;-53
2022/07/06 04:23:37;;;;;;;4.43;3.33;;;;;;;;;;2065700;28;20356;-54
2022/07/06 04:24:39;;;;;;;4.10;3.63;;;;;;;;;;2064714;28;20185;-54
2022/07/06 04:25:39;;;;;;;4.25;3.22;;;;;;;;;;2073479;28;20200;-52
2022/07/06 04:26:40;;;;;;;3.22;2.90;;;;;;;;;;2073583;28;20196;-57
2022/07/06 04:27:41;;;;;;;5.47;3.00;;;;;;;;;;2073445;28;20220;-53
2022/07/06 04:28:42;;;;;;;3.97;3.65;;;;;;;;;;2069511;28;20186;-51
2022/07/06 04:29:43;;;;;;;3.75;3.42;;;;;;;;;;2065260;28;20217;-53
2022/07/06 04:30:43;;;;;;;3.58;3.03;;;;;;;;;;2065330;28;20177;-55
2022/07/06 04:31:47;;;;;;;5.30;3.20;;;;;;;;;;2063989;28;20201;-52
2022/07/06 04:32:48;;;;;;;6.05;3.22;;;;;;;;;;2065598;28;20184;-51
2022/07/06 04:33:49;;;;;;;5.63;3.65;;;;;;;;;;2073523;28;20274;-56
2022/07/06 04:34:49;;;;;;;3.95;3.55;;;;;;;;;;2077940;28;20211;-53
2022/07/06 04:35:49;;;;;;;5.35;3.70;;;;;;;;;;2079690;28;20232;-52
2022/07/06 04:36:50;;;;;;;3.83;2.97;;;;;;;;;;2065751;28;20265;-51
2022/07/06 04:37:51;;;;;;;6.78;3.13;;;;;;;;;;2073587;28;20196;-55
2022/07/06 04:38:54;;;;;;;4.70;2.88;;;;;;;;;;2074896;28;20180;-52
2022/07/06 04:39:54;;;;;;;6.95;3.45;;;;;;;;;;2073400;28;20198;-53
2022/07/06 04:40:55;;;;;;;5.47;3.13;;;;;;;;;;2077728;28;20194;-56
2022/07/06 04:41:55;;;;;;;7.15;3.70;;;;;;;;;;2073538;28;20181;-54
2022/07/06 04:42:57;;;;;;;3.42;3.03;;;;;;;;;;2065428;28;20176;-52
2022/07/06 04:43:59;;;;;;;5.78;3.38;;;;;;;;;;2064901;28;20336;-53
2022/07/06 04:44:59;;;;;;;3.85;3.25;;;;;;;;;;2065234;28;20284;-53
2022/07/06 04:46:01;;;;;;;3.72;3.42;;;;;;;;;;2078590;28;20669;-54
2022/07/06 04:47:02;;;;;;;5.18;2.90;;;;;;;;;;2081641;28;20204;-56
2022/07/06 04:48:02;;;;;;;5.32;3.45;;;;;;;;;;2073222;28;20185;-57
2022/07/06 04:49:03;;;;;;;5.30;3.30;;;;;;;;;;2081675;28;20176;-51
2022/07/06 04:50:05;;;;;;;5.30;3.03;;;;;;;;;;2078147;28;20555;-56
2022/07/06 04:51:06;;;;;;;5.30;3.63;;;;;;;;;;2071003;28;20231;-55
2022/07/06 04:52:07;;;;;;;5.55;3.25;;;;;;;;;;2081184;28;20259;-56
2022/07/06 04:53:08;;;;;;;3.45;3.15;;;;;;;;;;2089706;28;20232;-54
2022/07/06 04:54:09;;;;;;;3.45;2.85;;;;;;;;;;2080541;28;20179;-55
2022/07/06 04:55:10;;;;;;;4.13;3.20;;;;;;;;;;2081709;28;20579;-55
2022/07/06 04:56:10;;;;;;;6.72;3.55;;;;;;;;;;2080387;28;20230;-54
2022/07/06 04:57:13;;;;;;;3.72;3.33;;;;;;;;;;2065110;28;20178;-57
2022/07/06 04:58:14;;;;;;;5.53;3.25;;;;;;;;;;2065595;28;20193;-57
2022/07/06 04:59:15;;;;;;;4.38;3.08;;;;;;;;;;2080423;28;20171;-55
2022/07/06 05:00:16;;;;;;;4.72;3.10;;;;;;;;;;2081577;28;20160;-60
2022/07/06 05:01:17;;;;;;;7.85;3.20;;;;;;;;;;2081987;28;20744;-59
2022/07/06 05:02:17;;;;;;;7.55;3.40;;;;;;;;;;2082177;28;20183;-56
2022/07/06 05:03:17;;;;;;;7.20;3.78;;;;;;;;;;2079196;28;20183;-55
2022/07/06 05:04:19;;;;;;;5.13;3.80;;;;;;;;;;2082390;28;20172;-56
2022/07/06 05:05:20;;;;;;;4.00;2.95;;;;;;;;;;2085825;28;20192;-56
2022/07/06 05:06:22;;;;;;;6.68;2.85;;;;;;;;;;2089321;28;20182;-54
2022/07/06 05:07:28;;;;;;;4.38;3.50;;;;;;;;;;2075160;28;20187;-56
2022/07/06 05:08:28;;;;;;;3.88;3.17;;;;;;;;;;2081158;28;20195;-56
2022/07/06 05:09:28;;;;;;;3.85;3.55;;;;;;;;;;2078210;28;20188;-52
2022/07/06 05:10:29;;;;;;;5.35;3.55;;;;;;;;;;2073474;28;20209;-53
2022/07/06 05:11:31;;;;;;;3.83;3.45;;;;;;;;;;2072140;28;20307;-55
2022/07/06 05:12:33;;;;;;;5.22;3.00;;;;;;;;;;2073373;28;20175;-57
2022/07/06 05:13:33;;;;;;;4.93;2.92;;;;;;;;;;2079186;28;20270;-56
2022/07/06 05:14:34;;;;;;;4.10;2.83;;;;;;;;;;2080555;28;20172;-55
2022/07/06 05:15:35;;;;;;;4.13;2.88;;;;;;;;;;2073317;28;20225;-55
2022/07/06 05:16:35;;;;;;;3.60;2.97;;;;;;;;;;2081439;28;20172;-60
2022/07/06 05:17:36;;;;;;;6.22;2.92;;;;;;;;;;2075363;28;20227;-59
2022/07/06 05:18:37;;;;;;;3.92;2.95;;;;;;;;;;2065390;28;20284;-54
2022/07/06 05:19:38;;;;;;;6.05;2.97;;;;;;;;;;2065038;28;20169;-55
2022/07/06 05:20:39;;;;;;;3.35;3.03;;;;;;;;;;2073210;28;20260;-56
2022/07/06 05:21:39;;;;;;;3.60;2.83;;;;;;;;;;2073181;28;20184;-52
2022/07/06 05:22:42;;;;;;;4.57;3.08;;;;;;;;;;2065322;28;20178;-55
2022/07/06 05:23:42;;;;;;;4.93;3.30;;;;;;;;;;2064914;28;20191;-56
2022/07/06 05:24:43;;;;;;;4.45;3.15;;;;;;;;;;2064170;28;20202;-57
2022/07/06 05:25:43;;;;;;;6.60;3.28;;;;;;;;;;2064797;28;20182;-54
2022/07/06 05:26:44;;;;;;;4.82;3.42;;;;;;;;;;2080766;28;20258;-54
2022/07/06 05:27:44;;;;;;;3.35;2.88;;;;;;;;;;2072780;28;20246;-57
2022/07/06 05:28:45;;;;;;;3.42;3.13;;;;;;;;;;2081595;28;20187;-56
2022/07/06 05:29:48;;;;;;;3.85;3.17;;;;;;;;;;2071537;28;20207;-56
2022/07/06 05:30:49;;;;;;;4.82;3.08;;;;;;;;;;2064899;28;20186;-56
2022/07/06 05:31:50;;;;;;;4.30;3.10;;;;;;;;;;2076012;28;20165;-57
2022/07/06 05:32:51;;;;;;;4.38;2.90;;;;;;;;;;2089068;28;20249;-57
2022/07/06 05:33:51;;;;;;;3.42;2.75;;;;;;;;;;2078346;28;20218;-58
2022/07/06 05:34:52;;;;;;;7.10;3.17;;;;;;;;;;2064819;28;20215;-55
2022/07/06 05:35:53;;;;;;;5.05;2.97;;;;;;;;;;2081355;28;20184;-54
2022/07/06 05:36:59;;;;;;;4.60;2.80;;;;;;;;;;2080660;28;20658;-50
2022/07/06 05:37:59;;;;;;;2.72;2.53;;;;;;;;;;2073141;28;20235;-54
2022/07/06 05:39:00;;;;;;;5.55;2.58;;;;;;;;;;2072926;28;20177;-56
2022/07/06 05:40:01;;;;;;;5.10;3.00;;;;;;;;;;2065004;28;20201;-54
2022/07/06 05:41:02;;;;;;;2.85;2.55;;;;;;;;;;2065010;28;20205;-51
2022/07/06 05:42:03;;;;;;;5.13;2.80;;;;;;;;;;2064894;28;20305;-56
2022/07/06 05:43:03;;;;;;;8.75;3.22;;;;;;;;;;2073036;28;20602;-57
2022/07/06 05:44:04;;;;;;;7.20;2.95;;;;;;;;;;2064201;28;20169;-54
2022/07/06 05:45:05;;;;;;;4.95;2.72;;;;;;;;;;2073871;28;20666;-55
2022/07/06 05:46:05;;;;;;;3.03;2.53;;;;;;;;;;2080183;28;20197;-57
2022/07/06 05:51:04;;;;;;;2.90;2.50;;;;;;;;;;2073322;28;20175;-55
2022/07/06 05:52:05;;;;;;;3.35;2.40;;;;;;;;;;2073033;28;20180;-54
2022/07/06 05:53:06;;;;;;;4.88;2.50;;;;;;;;;;2072880;28;20183;-53
2022/07/06 05:54:07;;;;;;;6.13;2.80;;;;;;;;;;2079441;28;20172;-55
2022/07/06 05:55:08;;;;;;;3.63;2.80;;;;;;;;;;2078635;28;20176;-58
2022/07/06 05:56:09;;;;;;;4.05;2.70;;;;;;;;;;2072026;28;20335;-55
2022/07/06 05:57:11;;;;;;;5.45;3.20;;;;;;;;;;2072377;28;20173;-56
2022/07/06 05:58:11;;;;;;;3.90;2.88;;;;;;;;;;2065025;28;20224;-55
2022/07/06 05:59:12;;;;;;;5.85;2.90;;;;;;;;;;2076180;28;20173;-57
2022/07/06 06:00:12;;;;;;;7.22;3.13;;;;;;;;;;2073826;28;20164;-58
2022/07/06 06:01:24;;;;;;;4.90;2.90;;;;;;;;;;2080966;28;20287;-56
2022/07/06 06:02:38;;;;;;;8.38;2.55;;;;;;;;;;2071368;28;20232;-48
2022/07/06 06:03:39;;;;;;;2.63;2.42;;;;;;;;;;2081414;28;20179;-52
2022/07/06 06:04:40;;;;;;;4.78;2.40;;;;;;;;;;2087949;28;20180;-56
2022/07/06 06:05:40;;;;;;;3.05;2.67;;;;;;;;;;2080785;28;20683;-55
2022/07/06 06:06:42;;;;;;;2.75;2.42;;;;;;;;;;2072012;28;20177;-57
2022/07/06 06:07:43;;;;;;;4.57;2.55;;;;;;;;;;2065701;28;20193;-53
2022/07/06 06:08:45;;;;;;;3.03;2.67;;;;;;;;;;2072931;28;20591;-56
2022/07/06 06:09:45;;;;;;;5.97;2.63;;;;;;;;;;2073000;28;20235;-57
2022/07/06 06:10:46;;;;;;;3.35;2.67;;;;;;;;;;2073087;28;20180;-56
2022/07/06 06:11:49;;;;;;;2.88;2.60;;;;;;;;;;2073173;28;20173;-56